sensor_id;sensor_type;location;lat;lon;timestamp;P1;durP1;ratioP1;P2;durP2;ratioP2
44885;SDS011;36669;51.428;21.162;2022-07-19T00:01:45;8.25;;;4.53;;
44885;SDS011;36669;51.428;21.162;2022-07-19T00:04:13;8.13;;;3.75;;
44885;SDS011;36669;51.428;21.162;2022-07-19T00:06:40;8.38;;;3.60;;
44885;SDS011;36669;51.428;21.162;2022-07-19T00:09:07;11.52;;;4.47;;
44885;SDS011;36669;51.428;21.162;2022-07-19T00:11:34;8.88;;;4.15;;
44885;SDS011;36669;51.428;21.162;2022-07-19T00:13:59;7.43;;;4.43;;
44885;SDS011;36669;51.428;21.162;2022-07-19T00:16:26;10.65;;;5.60;;
44885;SDS011;36669;51.428;21.162;2022-07-19T00:18:53;11.63;;;5.47;;
44885;SDS011;36669;51.428;21.162;2022-07-19T00:21:19;11.13;;;5.45;;
44885;SDS011;36669;51.428;21.162;2022-07-19T00:23:47;11.48;;;5.13;;
44885;SDS011;36669;51.428;21.162;2022-07-19T00:26:14;10.15;;;5.05;;
44885;SDS011;36669;51.428;21.162;2022-07-19T00:28:42;7.85;;;4.85;;
44885;SDS011;36669;51.428;21.162;2022-07-19T00:31:10;9.13;;;4.80;;
44885;SDS011;36669;51.428;21.162;2022-07-19T00:33:37;9.38;;;4.82;;
44885;SDS011;36669;51.428;21.162;2022-07-19T00:36:03;8.27;;;4.47;;
44885;SDS011;36669;51.428;21.162;2022-07-19T00:38:31;10.90;;;4.72;;
44885;SDS011;36669;51.428;21.162;2022-07-19T00:41:00;8.32;;;4.93;;
44885;SDS011;36669;51.428;21.162;2022-07-19T00:43:28;8.93;;;4.68;;
44885;SDS011;36669;51.428;21.162;2022-07-19T00:45:56;8.20;;;4.57;;
44885;SDS011;36669;51.428;21.162;2022-07-19T00:48:24;7.78;;;4.85;;
44885;SDS011;36669;51.428;21.162;2022-07-19T00:50:52;12.45;;;5.00;;
44885;SDS011;36669;51.428;21.162;2022-07-19T00:53:20;11.10;;;4.85;;
44885;SDS011;36669;51.428;21.162;2022-07-19T00:55:49;10.02;;;4.97;;
44885;SDS011;36669;51.428;21.162;2022-07-19T00:58:17;7.47;;;4.05;;
44885;SDS011;36669;51.428;21.162;2022-07-19T01:00:47;7.25;;;4.53;;
44885;SDS011;36669;51.428;21.162;2022-07-19T01:03:14;7.45;;;4.40;;
44885;SDS011;36669;51.428;21.162;2022-07-19T01:05:41;6.82;;;4.30;;
44885;SDS011;36669;51.428;21.162;2022-07-19T01:08:11;10.32;;;4.20;;
44885;SDS011;36669;51.428;21.162;2022-07-19T01:10:38;6.95;;;4.25;;
44885;SDS011;36669;51.428;21.162;2022-07-19T01:13:05;7.57;;;4.45;;
44885;SDS011;36669;51.428;21.162;2022-07-19T01:15:32;8.38;;;4.43;;
44885;SDS011;36669;51.428;21.162;2022-07-19T01:17:59;8.40;;;4.60;;
44885;SDS011;36669;51.428;21.162;2022-07-19T01:20:25;7.32;;;4.50;;
44885;SDS011;36669;51.428;21.162;2022-07-19T01:22:51;11.93;;;4.57;;
44885;SDS011;36669;51.428;21.162;2022-07-19T01:25:19;9.70;;;4.22;;
44885;SDS011;36669;51.428;21.162;2022-07-19T01:27:49;8.95;;;4.40;;
44885;SDS011;36669;51.428;21.162;2022-07-19T01:30:23;6.20;;;4.20;;
44885;SDS011;36669;51.428;21.162;2022-07-19T01:32:52;7.72;;;3.90;;
44885;SDS011;36669;51.428;21.162;2022-07-19T01:35:20;8.80;;;4.15;;
44885;SDS011;36669;51.428;21.162;2022-07-19T01:37:47;6.78;;;4.20;;
44885;SDS011;36669;51.428;21.162;2022-07-19T01:40:16;5.97;;;3.75;;
44885;SDS011;36669;51.428;21.162;2022-07-19T01:42:44;7.18;;;4.03;;
44885;SDS011;36669;51.428;21.162;2022-07-19T01:45:14;7.13;;;3.83;;
44885;SDS011;36669;51.428;21.162;2022-07-19T01:47:42;8.80;;;3.78;;
44885;SDS011;36669;51.428;21.162;2022-07-19T01:50:12;9.18;;;4.07;;
44885;SDS011;36669;51.428;21.162;2022-07-19T01:52:39;7.57;;;3.78;;
44885;SDS011;36669;51.428;21.162;2022-07-19T01:55:05;7.55;;;3.95;;
44885;SDS011;36669;51.428;21.162;2022-07-19T01:57:33;10.90;;;4.10;;
44885;SDS011;36669;51.428;21.162;2022-07-19T01:59:59;6.68;;;3.70;;
44885;SDS011;36669;51.428;21.162;2022-07-19T02:02:27;5.55;;;3.55;;
44885;SDS011;36669;51.428;21.162;2022-07-19T02:04:55;9.73;;;3.97;;
44885;SDS011;36669;51.428;21.162;2022-07-19T02:07:22;8.82;;;4.07;;
44885;SDS011;36669;51.428;21.162;2022-07-19T02:09:49;10.02;;;3.70;;
44885;SDS011;36669;51.428;21.162;2022-07-19T02:12:15;7.05;;;3.75;;
44885;SDS011;36669;51.428;21.162;2022-07-19T02:14:43;8.82;;;3.53;;
44885;SDS011;36669;51.428;21.162;2022-07-19T02:17:11;7.78;;;3.47;;
44885;SDS011;36669;51.428;21.162;2022-07-19T02:19:38;6.78;;;3.40;;
44885;SDS011;36669;51.428;21.162;2022-07-19T02:22:05;6.43;;;3.58;;
44885;SDS011;36669;51.428;21.162;2022-07-19T02:24:31;6.50;;;4.18;;
44885;SDS011;36669;51.428;21.162;2022-07-19T02:26:58;10.27;;;3.67;;
44885;SDS011;36669;51.428;21.162;2022-07-19T02:29:25;16.45;;;3.80;;
44885;SDS011;36669;51.428;21.162;2022-07-19T02:31:52;9.75;;;3.40;;
44885;SDS011;36669;51.428;21.162;2022-07-19T02:34:20;13.18;;;4.07;;
44885;SDS011;36669;51.428;21.162;2022-07-19T02:36:46;7.97;;;3.70;;
44885;SDS011;36669;51.428;21.162;2022-07-19T02:39:13;6.07;;;3.58;;
44885;SDS011;36669;51.428;21.162;2022-07-19T02:41:41;7.57;;;3.60;;
44885;SDS011;36669;51.428;21.162;2022-07-19T02:44:09;7.75;;;3.35;;
44885;SDS011;36669;51.428;21.162;2022-07-19T02:46:35;10.25;;;3.38;;
44885;SDS011;36669;51.428;21.162;2022-07-19T02:49:03;5.03;;;3.05;;
44885;SDS011;36669;51.428;21.162;2022-07-19T02:51:29;8.70;;;3.13;;
44885;SDS011;36669;51.428;21.162;2022-07-19T02:53:56;6.93;;;3.30;;
44885;SDS011;36669;51.428;21.162;2022-07-19T02:56:24;9.02;;;3.30;;
44885;SDS011;36669;51.428;21.162;2022-07-19T02:58:51;8.23;;;3.47;;
44885;SDS011;36669;51.428;21.162;2022-07-19T03:01:17;8.27;;;3.67;;
44885;SDS011;36669;51.428;21.162;2022-07-19T03:03:44;6.90;;;3.30;;
44885;SDS011;36669;51.428;21.162;2022-07-19T03:06:11;7.28;;;3.97;;
44885;SDS011;36669;51.428;21.162;2022-07-19T03:08:41;7.97;;;3.38;;
44885;SDS011;36669;51.428;21.162;2022-07-19T03:11:08;5.13;;;3.17;;
44885;SDS011;36669;51.428;21.162;2022-07-19T03:13:34;6.82;;;3.30;;
44885;SDS011;36669;51.428;21.162;2022-07-19T03:16:01;6.10;;;2.75;;
44885;SDS011;36669;51.428;21.162;2022-07-19T03:18:31;6.45;;;3.63;;
44885;SDS011;36669;51.428;21.162;2022-07-19T03:20:58;6.32;;;3.50;;
44885;SDS011;36669;51.428;21.162;2022-07-19T03:23:26;7.90;;;3.20;;
44885;SDS011;36669;51.428;21.162;2022-07-19T03:26:01;8.50;;;3.72;;
44885;SDS011;36669;51.428;21.162;2022-07-19T03:28:28;6.07;;;3.60;;
44885;SDS011;36669;51.428;21.162;2022-07-19T03:30:55;7.00;;;3.20;;
44885;SDS011;36669;51.428;21.162;2022-07-19T03:33:23;6.05;;;3.35;;
44885;SDS011;36669;51.428;21.162;2022-07-19T03:35:50;10.05;;;3.65;;
44885;SDS011;36669;51.428;21.162;2022-07-19T03:38:17;6.93;;;3.40;;
44885;SDS011;36669;51.428;21.162;2022-07-19T03:40:44;8.27;;;3.33;;
44885;SDS011;36669;51.428;21.162;2022-07-19T03:43:13;3.60;;;2.67;;
44885;SDS011;36669;51.428;21.162;2022-07-19T03:45:59;6.38;;;2.95;;
44885;SDS011;36669;51.428;21.162;2022-07-19T03:48:26;5.88;;;2.78;;
44885;SDS011;36669;51.428;21.162;2022-07-19T03:50:53;8.25;;;3.15;;
44885;SDS011;36669;51.428;21.162;2022-07-19T03:53:20;5.03;;;2.63;;
44885;SDS011;36669;51.428;21.162;2022-07-19T03:55:48;6.35;;;3.15;;
44885;SDS011;36669;51.428;21.162;2022-07-19T03:58:15;8.25;;;2.97;;
44885;SDS011;36669;51.428;21.162;2022-07-19T04:00:42;10.60;;;3.05;;
44885;SDS011;36669;51.428;21.162;2022-07-19T04:03:09;5.60;;;2.97;;
44885;SDS011;36669;51.428;21.162;2022-07-19T04:05:37;7.07;;;3.03;;
44885;SDS011;36669;51.428;21.162;2022-07-19T04:08:05;8.32;;;2.60;;
44885;SDS011;36669;51.428;21.162;2022-07-19T04:10:32;5.82;;;2.88;;
44885;SDS011;36669;51.428;21.162;2022-07-19T04:13:00;5.72;;;2.60;;
44885;SDS011;36669;51.428;21.162;2022-07-19T04:15:27;6.68;;;3.08;;
44885;SDS011;36669;51.428;21.162;2022-07-19T04:17:54;6.00;;;3.33;;
44885;SDS011;36669;51.428;21.162;2022-07-19T04:20:22;6.00;;;2.83;;
44885;SDS011;36669;51.428;21.162;2022-07-19T04:22:48;9.32;;;3.78;;
44885;SDS011;36669;51.428;21.162;2022-07-19T04:25:15;6.38;;;3.10;;
44885;SDS011;36669;51.428;21.162;2022-07-19T04:27:43;6.90;;;2.97;;
44885;SDS011;36669;51.428;21.162;2022-07-19T04:30:10;6.50;;;2.80;;
44885;SDS011;36669;51.428;21.162;2022-07-19T04:32:37;8.85;;;3.00;;
44885;SDS011;36669;51.428;21.162;2022-07-19T04:35:04;10.98;;;3.03;;
44885;SDS011;36669;51.428;21.162;2022-07-19T04:37:31;10.25;;;2.88;;
44885;SDS011;36669;51.428;21.162;2022-07-19T04:39:58;7.90;;;3.10;;
44885;SDS011;36669;51.428;21.162;2022-07-19T04:42:26;6.18;;;3.08;;
44885;SDS011;36669;51.428;21.162;2022-07-19T04:44:52;13.57;;;3.72;;
44885;SDS011;36669;51.428;21.162;2022-07-19T04:47:19;5.70;;;2.85;;
44885;SDS011;36669;51.428;21.162;2022-07-19T04:49:46;7.03;;;3.10;;
44885;SDS011;36669;51.428;21.162;2022-07-19T04:52:13;7.32;;;3.38;;
44885;SDS011;36669;51.428;21.162;2022-07-19T04:54:39;10.20;;;3.17;;
44885;SDS011;36669;51.428;21.162;2022-07-19T04:57:06;12.88;;;3.28;;
44885;SDS011;36669;51.428;21.162;2022-07-19T04:59:33;5.72;;;3.15;;
44885;SDS011;36669;51.428;21.162;2022-07-19T05:02:01;5.90;;;3.20;;
44885;SDS011;36669;51.428;21.162;2022-07-19T05:04:29;11.55;;;3.45;;
44885;SDS011;36669;51.428;21.162;2022-07-19T05:06:56;10.00;;;3.42;;
44885;SDS011;36669;51.428;21.162;2022-07-19T05:09:27;6.95;;;3.60;;
44885;SDS011;36669;51.428;21.162;2022-07-19T05:11:55;8.57;;;2.90;;
44885;SDS011;36669;51.428;21.162;2022-07-19T05:14:23;9.10;;;3.20;;
44885;SDS011;36669;51.428;21.162;2022-07-19T05:16:51;10.50;;;3.80;;
44885;SDS011;36669;51.428;21.162;2022-07-19T05:19:19;8.90;;;3.38;;
44885;SDS011;36669;51.428;21.162;2022-07-19T05:21:47;11.88;;;3.17;;
44885;SDS011;36669;51.428;21.162;2022-07-19T05:24:13;12.73;;;3.88;;
44885;SDS011;36669;51.428;21.162;2022-07-19T05:26:40;10.93;;;3.50;;
44885;SDS011;36669;51.428;21.162;2022-07-19T05:29:07;16.17;;;3.70;;
44885;SDS011;36669;51.428;21.162;2022-07-19T05:31:35;9.55;;;4.25;;
44885;SDS011;36669;51.428;21.162;2022-07-19T05:34:01;7.55;;;3.67;;
44885;SDS011;36669;51.428;21.162;2022-07-19T05:36:30;7.85;;;3.30;;
44885;SDS011;36669;51.428;21.162;2022-07-19T05:38:58;8.80;;;3.97;;
44885;SDS011;36669;51.428;21.162;2022-07-19T05:41:26;12.93;;;4.10;;
44885;SDS011;36669;51.428;21.162;2022-07-19T05:43:52;15.93;;;4.82;;
44885;SDS011;36669;51.428;21.162;2022-07-19T05:46:21;11.30;;;4.45;;
44885;SDS011;36669;51.428;21.162;2022-07-19T05:48:49;13.73;;;4.40;;
44885;SDS011;36669;51.428;21.162;2022-07-19T05:51:19;10.77;;;4.40;;
44885;SDS011;36669;51.428;21.162;2022-07-19T05:53:47;9.70;;;3.88;;
44885;SDS011;36669;51.428;21.162;2022-07-19T05:56:14;13.25;;;4.35;;
44885;SDS011;36669;51.428;21.162;2022-07-19T05:58:41;8.27;;;4.13;;
44885;SDS011;36669;51.428;21.162;2022-07-19T06:01:08;10.30;;;3.65;;
44885;SDS011;36669;51.428;21.162;2022-07-19T06:03:34;12.10;;;4.15;;
44885;SDS011;36669;51.428;21.162;2022-07-19T06:06:01;11.70;;;3.95;;
44885;SDS011;36669;51.428;21.162;2022-07-19T06:08:29;9.63;;;3.92;;
44885;SDS011;36669;51.428;21.162;2022-07-19T06:10:56;10.52;;;3.92;;
44885;SDS011;36669;51.428;21.162;2022-07-19T06:13:24;16.02;;;4.10;;
44885;SDS011;36669;51.428;21.162;2022-07-19T06:15:51;13.15;;;4.63;;
44885;SDS011;36669;51.428;21.162;2022-07-19T06:18:17;12.40;;;4.45;;
44885;SDS011;36669;51.428;21.162;2022-07-19T06:20:45;13.18;;;4.35;;
44885;SDS011;36669;51.428;21.162;2022-07-19T06:23:12;12.40;;;3.70;;
44885;SDS011;36669;51.428;21.162;2022-07-19T06:25:40;12.30;;;4.47;;
44885;SDS011;36669;51.428;21.162;2022-07-19T06:28:07;9.60;;;4.03;;
44885;SDS011;36669;51.428;21.162;2022-07-19T06:30:33;10.65;;;3.65;;
44885;SDS011;36669;51.428;21.162;2022-07-19T06:33:00;10.40;;;4.10;;
44885;SDS011;36669;51.428;21.162;2022-07-19T06:35:28;12.77;;;3.53;;
44885;SDS011;36669;51.428;21.162;2022-07-19T06:37:56;15.93;;;3.70;;
44885;SDS011;36669;51.428;21.162;2022-07-19T06:40:23;8.32;;;3.65;;
44885;SDS011;36669;51.428;21.162;2022-07-19T06:42:50;11.30;;;4.18;;
44885;SDS011;36669;51.428;21.162;2022-07-19T06:45:17;10.00;;;3.85;;
44885;SDS011;36669;51.428;21.162;2022-07-19T06:47:44;11.05;;;4.00;;
44885;SDS011;36669;51.428;21.162;2022-07-19T06:50:12;11.02;;;3.78;;
44885;SDS011;36669;51.428;21.162;2022-07-19T06:52:40;10.73;;;4.05;;
44885;SDS011;36669;51.428;21.162;2022-07-19T06:55:07;10.25;;;4.32;;
44885;SDS011;36669;51.428;21.162;2022-07-19T06:57:33;15.70;;;4.80;;
44885;SDS011;36669;51.428;21.162;2022-07-19T07:00:02;11.05;;;4.25;;
44885;SDS011;36669;51.428;21.162;2022-07-19T07:02:31;14.57;;;4.78;;
44885;SDS011;36669;51.428;21.162;2022-07-19T07:04:58;11.95;;;4.78;;
44885;SDS011;36669;51.428;21.162;2022-07-19T07:07:26;16.92;;;4.72;;
44885;SDS011;36669;51.428;21.162;2022-07-19T07:09:55;9.20;;;4.13;;
44885;SDS011;36669;51.428;21.162;2022-07-19T07:12:21;11.30;;;4.13;;
44885;SDS011;36669;51.428;21.162;2022-07-19T07:14:48;8.02;;;4.07;;
44885;SDS011;36669;51.428;21.162;2022-07-19T07:17:15;15.10;;;4.15;;
44885;SDS011;36669;51.428;21.162;2022-07-19T07:19:42;16.30;;;3.90;;
44885;SDS011;36669;51.428;21.162;2022-07-19T07:22:08;9.05;;;3.90;;
44885;SDS011;36669;51.428;21.162;2022-07-19T07:24:36;7.18;;;3.60;;
44885;SDS011;36669;51.428;21.162;2022-07-19T07:27:03;10.15;;;3.35;;
44885;SDS011;36669;51.428;21.162;2022-07-19T07:29:30;9.75;;;3.90;;
44885;SDS011;36669;51.428;21.162;2022-07-19T07:31:57;10.68;;;4.07;;
44885;SDS011;36669;51.428;21.162;2022-07-19T07:34:24;11.57;;;3.55;;
44885;SDS011;36669;51.428;21.162;2022-07-19T07:36:52;8.63;;;3.65;;
44885;SDS011;36669;51.428;21.162;2022-07-19T07:39:19;16.15;;;3.67;;
44885;SDS011;36669;51.428;21.162;2022-07-19T07:41:46;8.95;;;3.83;;
44885;SDS011;36669;51.428;21.162;2022-07-19T07:44:14;13.60;;;4.57;;
44885;SDS011;36669;51.428;21.162;2022-07-19T07:46:40;8.88;;;3.97;;
44885;SDS011;36669;51.428;21.162;2022-07-19T07:49:07;11.55;;;3.78;;
44885;SDS011;36669;51.428;21.162;2022-07-19T07:51:34;10.43;;;3.88;;
44885;SDS011;36669;51.428;21.162;2022-07-19T07:54:04;11.02;;;3.90;;
44885;SDS011;36669;51.428;21.162;2022-07-19T07:56:31;10.38;;;3.67;;
44885;SDS011;36669;51.428;21.162;2022-07-19T07:58:57;10.60;;;3.72;;
44885;SDS011;36669;51.428;21.162;2022-07-19T08:01:24;8.45;;;4.38;;
44885;SDS011;36669;51.428;21.162;2022-07-19T08:03:49;10.45;;;4.43;;
44885;SDS011;36669;51.428;21.162;2022-07-19T08:06:18;11.02;;;3.50;;
44885;SDS011;36669;51.428;21.162;2022-07-19T08:08:46;10.35;;;3.78;;
44885;SDS011;36669;51.428;21.162;2022-07-19T08:11:12;13.35;;;4.00;;
44885;SDS011;36669;51.428;21.162;2022-07-19T08:13:39;7.93;;;3.60;;
44885;SDS011;36669;51.428;21.162;2022-07-19T08:16:06;7.35;;;3.50;;
44885;SDS011;36669;51.428;21.162;2022-07-19T08:18:33;9.15;;;4.00;;
44885;SDS011;36669;51.428;21.162;2022-07-19T08:21:00;11.15;;;3.72;;
44885;SDS011;36669;51.428;21.162;2022-07-19T08:23:26;7.13;;;3.75;;
44885;SDS011;36669;51.428;21.162;2022-07-19T08:25:54;9.13;;;4.40;;
44885;SDS011;36669;51.428;21.162;2022-07-19T08:28:21;7.18;;;3.50;;
44885;SDS011;36669;51.428;21.162;2022-07-19T08:30:48;9.25;;;3.60;;
44885;SDS011;36669;51.428;21.162;2022-07-19T08:33:16;14.32;;;3.35;;
44885;SDS011;36669;51.428;21.162;2022-07-19T08:35:44;9.60;;;3.47;;
44885;SDS011;36669;51.428;21.162;2022-07-19T08:38:11;7.68;;;3.40;;
44885;SDS011;36669;51.428;21.162;2022-07-19T08:40:38;5.57;;;3.35;;
44885;SDS011;36669;51.428;21.162;2022-07-19T08:43:10;6.70;;;3.85;;
44885;SDS011;36669;51.428;21.162;2022-07-19T08:45:36;10.05;;;3.72;;
44885;SDS011;36669;51.428;21.162;2022-07-19T08:48:06;7.85;;;3.25;;
44885;SDS011;36669;51.428;21.162;2022-07-19T08:50:34;12.82;;;3.42;;
44885;SDS011;36669;51.428;21.162;2022-07-19T08:53:02;7.18;;;3.47;;
44885;SDS011;36669;51.428;21.162;2022-07-19T08:55:31;14.52;;;4.13;;
44885;SDS011;36669;51.428;21.162;2022-07-19T08:57:57;8.57;;;3.72;;
44885;SDS011;36669;51.428;21.162;2022-07-19T09:00:24;11.57;;;4.05;;
44885;SDS011;36669;51.428;21.162;2022-07-19T09:03:01;10.80;;;3.95;;
44885;SDS011;36669;51.428;21.162;2022-07-19T09:05:30;8.70;;;3.75;;
44885;SDS011;36669;51.428;21.162;2022-07-19T09:08:10;6.95;;;3.38;;
44885;SDS011;36669;51.428;21.162;2022-07-19T09:10:44;7.63;;;3.50;;
44885;SDS011;36669;51.428;21.162;2022-07-19T09:13:14;9.93;;;3.53;;
44885;SDS011;36669;51.428;21.162;2022-07-19T09:15:52;10.38;;;3.50;;
44885;SDS011;36669;51.428;21.162;2022-07-19T09:20:59;7.20;;;3.20;;
44885;SDS011;36669;51.428;21.162;2022-07-19T09:23:40;6.03;;;3.42;;
44885;SDS011;36669;51.428;21.162;2022-07-19T09:26:06;11.20;;;3.30;;
44885;SDS011;36669;51.428;21.162;2022-07-19T09:28:34;10.93;;;3.80;;
44885;SDS011;36669;51.428;21.162;2022-07-19T09:31:02;11.95;;;3.67;;
44885;SDS011;36669;51.428;21.162;2022-07-19T09:33:30;11.70;;;3.83;;
44885;SDS011;36669;51.428;21.162;2022-07-19T09:36:04;10.45;;;4.45;;
44885;SDS011;36669;51.428;21.162;2022-07-19T09:38:37;8.80;;;3.70;;
44885;SDS011;36669;51.428;21.162;2022-07-19T09:41:14;6.88;;;3.38;;
44885;SDS011;36669;51.428;21.162;2022-07-19T09:43:59;6.20;;;3.42;;
44885;SDS011;36669;51.428;21.162;2022-07-19T09:46:39;10.02;;;3.50;;
44885;SDS011;36669;51.428;21.162;2022-07-19T09:49:13;8.55;;;3.10;;
44885;SDS011;36669;51.428;21.162;2022-07-19T09:51:50;8.20;;;3.55;;
44885;SDS011;36669;51.428;21.162;2022-07-19T09:54:23;6.40;;;3.55;;
44885;SDS011;36669;51.428;21.162;2022-07-19T09:56:53;10.48;;;3.08;;
44885;SDS011;36669;51.428;21.162;2022-07-19T09:59:22;6.25;;;3.60;;
44885;SDS011;36669;51.428;21.162;2022-07-19T10:01:51;6.80;;;2.92;;
44885;SDS011;36669;51.428;21.162;2022-07-19T10:04:20;8.65;;;3.30;;
44885;SDS011;36669;51.428;21.162;2022-07-19T10:06:49;5.35;;;2.97;;
44885;SDS011;36669;51.428;21.162;2022-07-19T10:09:18;7.95;;;3.10;;
44885;SDS011;36669;51.428;21.162;2022-07-19T10:11:47;6.95;;;2.65;;
44885;SDS011;36669;51.428;21.162;2022-07-19T10:14:14;5.25;;;2.70;;
44885;SDS011;36669;51.428;21.162;2022-07-19T10:19:46;6.97;;;2.95;;
44885;SDS011;36669;51.428;21.162;2022-07-19T10:22:15;6.65;;;2.80;;
44885;SDS011;36669;51.428;21.162;2022-07-19T10:24:52;7.70;;;3.17;;
44885;SDS011;36669;51.428;21.162;2022-07-19T10:30:16;5.60;;;2.83;;
44885;SDS011;36669;51.428;21.162;2022-07-19T10:32:44;7.05;;;2.75;;
44885;SDS011;36669;51.428;21.162;2022-07-19T10:35:29;4.10;;;2.58;;
44885;SDS011;36669;51.428;21.162;2022-07-19T10:43:20;4.15;;;2.60;;
44885;SDS011;36669;51.428;21.162;2022-07-19T10:51:32;3.45;;;2.28;;
44885;SDS011;36669;51.428;21.162;2022-07-19T10:56:35;4.90;;;2.60;;
44885;SDS011;36669;51.428;21.162;2022-07-19T10:59:11;5.18;;;2.30;;
44885;SDS011;36669;51.428;21.162;2022-07-19T11:01:52;7.72;;;2.53;;
44885;SDS011;36669;51.428;21.162;2022-07-19T11:04:31;6.30;;;2.67;;
44885;SDS011;36669;51.428;21.162;2022-07-19T11:07:18;4.15;;;2.20;;
44885;SDS011;36669;51.428;21.162;2022-07-19T11:09:56;6.78;;;2.65;;
44885;SDS011;36669;51.428;21.162;2022-07-19T11:12:31;13.88;;;2.47;;
44885;SDS011;36669;51.428;21.162;2022-07-19T11:15:05;4.75;;;2.60;;
44885;SDS011;36669;51.428;21.162;2022-07-19T11:17:34;5.10;;;2.60;;
44885;SDS011;36669;51.428;21.162;2022-07-19T11:20:11;7.10;;;2.58;;
44885;SDS011;36669;51.428;21.162;2022-07-19T11:22:40;5.28;;;2.90;;
44885;SDS011;36669;51.428;21.162;2022-07-19T11:25:11;5.20;;;2.60;;
44885;SDS011;36669;51.428;21.162;2022-07-19T11:27:44;7.18;;;2.70;;
44885;SDS011;36669;51.428;21.162;2022-07-19T11:30:21;4.97;;;2.53;;
44885;SDS011;36669;51.428;21.162;2022-07-19T11:32:52;7.65;;;2.65;;
44885;SDS011;36669;51.428;21.162;2022-07-19T11:35:20;5.40;;;2.75;;
44885;SDS011;36669;51.428;21.162;2022-07-19T11:37:51;10.13;;;2.60;;
44885;SDS011;36669;51.428;21.162;2022-07-19T11:40:20;4.68;;;2.28;;
44885;SDS011;36669;51.428;21.162;2022-07-19T11:42:48;8.85;;;2.88;;
44885;SDS011;36669;51.428;21.162;2022-07-19T11:45:25;7.40;;;2.28;;
44885;SDS011;36669;51.428;21.162;2022-07-19T11:47:54;5.40;;;2.38;;
44885;SDS011;36669;51.428;21.162;2022-07-19T11:50:25;4.40;;;2.30;;
44885;SDS011;36669;51.428;21.162;2022-07-19T11:52:54;4.47;;;2.30;;
44885;SDS011;36669;51.428;21.162;2022-07-19T11:55:23;3.28;;;2.10;;
44885;SDS011;36669;51.428;21.162;2022-07-19T11:57:52;4.65;;;2.50;;
44885;SDS011;36669;51.428;21.162;2022-07-19T12:00:20;11.32;;;2.70;;
44885;SDS011;36669;51.428;21.162;2022-07-19T12:03:00;7.10;;;2.83;;
44885;SDS011;36669;51.428;21.162;2022-07-19T12:05:31;4.55;;;2.20;;
44885;SDS011;36669;51.428;21.162;2022-07-19T12:08:01;7.10;;;2.42;;
44885;SDS011;36669;51.428;21.162;2022-07-19T12:10:46;8.95;;;3.03;;
44885;SDS011;36669;51.428;21.162;2022-07-19T12:13:14;7.00;;;2.95;;
44885;SDS011;36669;51.428;21.162;2022-07-19T12:15:54;3.67;;;2.60;;
44885;SDS011;36669;51.428;21.162;2022-07-19T12:27:05;9.00;;;2.95;;
44885;SDS011;36669;51.428;21.162;2022-07-19T12:29:36;5.70;;;2.78;;
44885;SDS011;36669;51.428;21.162;2022-07-19T12:32:14;5.47;;;2.85;;
44885;SDS011;36669;51.428;21.162;2022-07-19T12:34:55;4.70;;;2.65;;
44885;SDS011;36669;51.428;21.162;2022-07-19T12:37:45;7.70;;;3.00;;
44885;SDS011;36669;51.428;21.162;2022-07-19T12:40:24;3.92;;;2.95;;
44885;SDS011;36669;51.428;21.162;2022-07-19T12:42:58;4.85;;;2.80;;
44885;SDS011;36669;51.428;21.162;2022-07-19T12:45:25;6.85;;;3.20;;
44885;SDS011;36669;51.428;21.162;2022-07-19T12:47:54;6.82;;;3.08;;
44885;SDS011;36669;51.428;21.162;2022-07-19T12:53:06;6.60;;;3.00;;
44885;SDS011;36669;51.428;21.162;2022-07-19T12:55:34;5.18;;;3.03;;
44885;SDS011;36669;51.428;21.162;2022-07-19T12:58:03;5.40;;;3.25;;
44885;SDS011;36669;51.428;21.162;2022-07-19T13:00:33;5.40;;;2.70;;
44885;SDS011;36669;51.428;21.162;2022-07-19T13:03:03;6.28;;;2.80;;
44885;SDS011;36669;51.428;21.162;2022-07-19T13:05:31;7.10;;;3.10;;
44885;SDS011;36669;51.428;21.162;2022-07-19T13:08:07;4.65;;;3.08;;
44885;SDS011;36669;51.428;21.162;2022-07-19T13:10:35;5.50;;;3.00;;
44885;SDS011;36669;51.428;21.162;2022-07-19T13:13:03;4.95;;;2.75;;
44885;SDS011;36669;51.428;21.162;2022-07-19T13:15:31;5.93;;;2.70;;
44885;SDS011;36669;51.428;21.162;2022-07-19T13:17:58;4.93;;;2.80;;
44885;SDS011;36669;51.428;21.162;2022-07-19T13:20:25;7.55;;;2.78;;
44885;SDS011;36669;51.428;21.162;2022-07-19T13:22:54;4.63;;;3.10;;
44885;SDS011;36669;51.428;21.162;2022-07-19T13:25:21;7.68;;;3.00;;
44885;SDS011;36669;51.428;21.162;2022-07-19T13:27:49;9.75;;;2.20;;
44885;SDS011;36669;51.428;21.162;2022-07-19T13:30:15;4.80;;;2.45;;
44885;SDS011;36669;51.428;21.162;2022-07-19T13:32:42;6.60;;;2.70;;
44885;SDS011;36669;51.428;21.162;2022-07-19T13:35:10;7.25;;;2.58;;
44885;SDS011;36669;51.428;21.162;2022-07-19T13:37:38;4.57;;;2.55;;
44885;SDS011;36669;51.428;21.162;2022-07-19T13:40:04;4.43;;;2.97;;
44885;SDS011;36669;51.428;21.162;2022-07-19T13:42:32;5.57;;;2.83;;
44885;SDS011;36669;51.428;21.162;2022-07-19T13:45:00;4.40;;;2.65;;
44885;SDS011;36669;51.428;21.162;2022-07-19T13:47:28;4.03;;;2.70;;
44885;SDS011;36669;51.428;21.162;2022-07-19T13:49:56;4.88;;;2.90;;
44885;SDS011;36669;51.428;21.162;2022-07-19T13:52:22;5.35;;;2.42;;
44885;SDS011;36669;51.428;21.162;2022-07-19T13:54:50;5.55;;;2.78;;
44885;SDS011;36669;51.428;21.162;2022-07-19T13:57:17;7.40;;;2.88;;
44885;SDS011;36669;51.428;21.162;2022-07-19T13:59:43;7.88;;;2.38;;
44885;SDS011;36669;51.428;21.162;2022-07-19T14:02:09;3.75;;;2.50;;
44885;SDS011;36669;51.428;21.162;2022-07-19T14:04:37;4.95;;;2.45;;
44885;SDS011;36669;51.428;21.162;2022-07-19T14:07:04;7.80;;;3.00;;
44885;SDS011;36669;51.428;21.162;2022-07-19T14:09:30;6.00;;;2.78;;
44885;SDS011;36669;51.428;21.162;2022-07-19T14:11:57;4.32;;;2.78;;
44885;SDS011;36669;51.428;21.162;2022-07-19T14:14:25;4.78;;;2.85;;
44885;SDS011;36669;51.428;21.162;2022-07-19T14:16:50;4.90;;;2.58;;
44885;SDS011;36669;51.428;21.162;2022-07-19T14:19:17;4.47;;;2.70;;
44885;SDS011;36669;51.428;21.162;2022-07-19T14:21:44;9.30;;;2.90;;
44885;SDS011;36669;51.428;21.162;2022-07-19T14:24:11;10.45;;;2.80;;
44885;SDS011;36669;51.428;21.162;2022-07-19T14:26:38;7.35;;;3.08;;
44885;SDS011;36669;51.428;21.162;2022-07-19T14:29:05;7.25;;;2.88;;
44885;SDS011;36669;51.428;21.162;2022-07-19T14:31:33;6.82;;;2.63;;
44885;SDS011;36669;51.428;21.162;2022-07-19T14:34:00;5.03;;;2.70;;
44885;SDS011;36669;51.428;21.162;2022-07-19T14:36:28;5.53;;;2.75;;
44885;SDS011;36669;51.428;21.162;2022-07-19T14:38:54;4.43;;;2.50;;
44885;SDS011;36669;51.428;21.162;2022-07-19T14:41:23;8.20;;;2.70;;
44885;SDS011;36669;51.428;21.162;2022-07-19T14:43:48;7.07;;;3.30;;
44885;SDS011;36669;51.428;21.162;2022-07-19T14:46:15;6.00;;;3.00;;
44885;SDS011;36669;51.428;21.162;2022-07-19T14:48:45;9.45;;;2.92;;
44885;SDS011;36669;51.428;21.162;2022-07-19T14:51:12;8.93;;;2.92;;
44885;SDS011;36669;51.428;21.162;2022-07-19T14:53:39;4.28;;;2.75;;
44885;SDS011;36669;51.428;21.162;2022-07-19T14:56:06;3.88;;;2.58;;
44885;SDS011;36669;51.428;21.162;2022-07-19T14:58:33;5.28;;;3.08;;
44885;SDS011;36669;51.428;21.162;2022-07-19T15:01:00;6.07;;;2.95;;
44885;SDS011;36669;51.428;21.162;2022-07-19T15:03:27;4.78;;;2.67;;
44885;SDS011;36669;51.428;21.162;2022-07-19T15:05:55;5.80;;;2.80;;
44885;SDS011;36669;51.428;21.162;2022-07-19T15:08:20;5.15;;;2.80;;
44885;SDS011;36669;51.428;21.162;2022-07-19T15:10:46;7.13;;;2.97;;
44885;SDS011;36669;51.428;21.162;2022-07-19T15:13:14;4.97;;;3.30;;